createdAt,value
2022-09-04T00:00:57.807Z,9.668043
2022-09-04T00:01:57.764Z,9.667977
2022-09-04T00:02:57.788Z,9.667969
2022-09-04T00:03:57.859Z,9.667988
2022-09-04T00:04:57.829Z,9.667933
2022-09-04T00:05:57.720Z,9.667990
2022-09-04T00:06:57.715Z,9.667940
2022-09-04T00:07:57.723Z,9.667985
2022-09-04T00:08:57.731Z,9.668036
2022-09-04T00:09:57.737Z,9.667985
2022-09-04T00:10:57.723Z,9.668015
2022-09-04T00:11:57.695Z,9.667995
2022-09-04T00:12:57.703Z,9.668000
2022-09-04T00:13:57.713Z,9.667962
2022-09-04T00:14:57.658Z,9.667968
2022-09-04T00:15:57.730Z,9.667950
2022-09-04T00:16:57.716Z,9.668035
2022-09-04T00:17:57.675Z,9.668043
2022-09-04T00:18:57.657Z,9.668023
2022-09-04T00:19:58.392Z,9.668029
2022-09-04T00:20:57.660Z,9.667994
2022-09-04T00:21:57.630Z,9.668091
2022-09-04T00:22:57.620Z,9.668002
2022-09-04T00:23:57.625Z,9.668034
2022-09-04T00:24:57.611Z,9.668075
2022-09-04T00:25:57.687Z,9.668019
2022-09-04T00:26:57.601Z,9.668020
2022-09-04T00:27:57.549Z,9.668044
2022-09-04T00:28:57.549Z,9.667974
2022-09-04T00:29:57.580Z,9.667945
2022-09-04T00:30:58.490Z,9.668002
2022-09-04T00:31:57.553Z,9.667979
2022-09-04T00:32:58.382Z,9.668035
2022-09-04T00:33:57.544Z,9.668018
2022-09-04T00:34:57.549Z,9.667975
2022-09-04T00:35:57.519Z,9.667833
2022-09-04T00:36:57.486Z,9.667911
2022-09-04T00:37:57.522Z,9.667986
2022-09-04T00:38:57.569Z,9.667937
2022-09-04T00:39:57.626Z,9.667857
2022-09-04T00:40:57.517Z,9.667920
2022-09-04T00:41:57.593Z,9.667975
2022-09-04T00:42:57.616Z,9.667995
2022-09-04T00:43:57.459Z,9.667975
2022-09-04T00:44:57.457Z,9.667977
2022-09-04T00:45:57.468Z,9.667965
2022-09-04T00:46:57.449Z,9.667965
2022-09-04T00:47:57.467Z,9.667962
2022-09-04T00:48:57.424Z,9.668007
2022-09-04T00:49:57.408Z,9.667977
2022-09-04T00:50:57.390Z,9.667959
2022-09-04T00:51:57.432Z,9.668001
2022-09-04T00:52:59.358Z,9.668002
2022-09-04T00:53:57.406Z,9.667973
2022-09-04T00:54:57.377Z,9.667969
2022-09-04T00:55:57.355Z,9.667993
2022-09-04T00:56:57.396Z,9.668022
2022-09-04T00:57:57.311Z,9.668013
2022-09-04T00:58:57.328Z,9.667955
2022-09-04T00:59:57.336Z,9.668013
2022-09-04T01:00:57.414Z,9.668033
2022-09-04T01:01:57.405Z,9.667904
2022-09-04T01:02:58.848Z,9.667827
2022-09-04T01:03:58.442Z,9.667951
2022-09-04T01:04:57.284Z,9.667983
2022-09-04T01:05:57.272Z,9.668029
2022-09-04T01:06:57.283Z,9.667973
2022-09-04T01:07:57.329Z,9.668019
2022-09-04T01:08:57.264Z,9.668015
2022-09-04T01:09:57.277Z,9.668003
2022-09-04T01:10:57.274Z,9.667967
2022-09-04T01:11:57.257Z,9.667994
2022-09-04T01:12:57.280Z,9.667928
2022-09-04T01:13:57.216Z,9.667963
2022-09-04T01:14:57.219Z,9.667989
2022-09-04T01:15:57.209Z,9.667922
2022-09-04T01:16:57.242Z,9.668026
2022-09-04T01:17:57.219Z,9.668005
2022-09-04T01:18:57.176Z,9.667906
2022-09-04T01:19:57.144Z,9.667981
2022-09-04T01:20:57.251Z,9.667962
2022-09-04T01:21:57.113Z,9.667918
2022-09-04T01:23:31.278Z,9.668042
2022-09-04T01:23:57.152Z,9.667960
2022-09-04T01:24:57.157Z,9.667974
2022-09-04T01:26:29.624Z,9.667962
2022-09-04T01:26:57.115Z,9.667985
2022-09-04T01:28:31.309Z,9.667985
2022-09-04T01:28:57.078Z,9.667988
2022-09-04T01:29:57.146Z,9.667952
2022-09-04T01:31:29.515Z,9.668056
2022-09-04T01:31:57.086Z,9.667981
2022-09-04T01:32:57.033Z,9.667973
2022-09-04T01:33:57.798Z,9.667984
2022-09-04T01:34:57.069Z,9.667980
2022-09-04T01:35:57.079Z,9.667994
2022-09-04T01:36:57.051Z,9.667991
2022-09-04T01:37:57.023Z,9.667964
2022-09-04T01:38:57.068Z,9.667966
2022-09-04T01:39:57.089Z,9.667978
2022-09-04T01:40:57.010Z,9.668039
2022-09-04T01:41:56.991Z,9.668027
2022-09-04T01:42:56.995Z,9.667972
2022-09-04T01:43:56.964Z,9.667996
2022-09-04T01:44:56.934Z,9.667985
2022-09-04T02:04:38.957Z,9.668074
2022-09-04T02:05:38.566Z,9.667995
2022-09-04T02:06:38.492Z,9.667917
2022-09-04T02:07:38.437Z,9.667988
2022-09-04T02:08:38.440Z,9.667942
2022-09-04T02:09:38.442Z,9.668010
2022-09-04T02:10:38.424Z,9.668053
2022-09-04T02:11:38.477Z,9.668055
2022-09-04T02:12:38.399Z,9.668039
2022-09-04T02:13:38.413Z,9.668035
2022-09-04T02:14:38.387Z,9.668004
2022-09-04T02:15:38.378Z,9.668015
2022-09-04T02:16:38.410Z,9.667975
2022-09-04T02:17:38.332Z,9.668064
2022-09-04T02:18:38.345Z,9.668060
2022-09-04T02:19:38.361Z,9.668005
2022-09-04T02:20:38.355Z,9.667941
2022-09-04T02:21:38.986Z,9.667972
2022-09-04T02:22:38.316Z,9.667972
2022-09-04T02:23:38.301Z,9.667971
2022-09-04T02:24:38.308Z,9.667976
2022-09-04T02:25:38.289Z,9.667945
2022-09-04T02:26:38.291Z,9.667939
2022-09-04T02:27:38.281Z,9.667950
2022-09-04T02:28:38.270Z,9.667916
2022-09-04T02:30:12.892Z,9.667953
2022-09-04T02:30:38.234Z,9.667946
2022-09-04T02:31:38.290Z,9.668004
2022-09-04T02:32:38.238Z,9.667974
2022-09-04T02:33:38.242Z,9.667986
2022-09-04T02:34:38.231Z,9.667986
2022-09-04T02:35:38.260Z,9.668000
2022-09-04T02:36:38.186Z,9.668006
2022-09-04T02:37:38.186Z,9.667989
2022-09-04T02:38:38.219Z,9.668016
2022-09-04T02:39:38.292Z,9.667988
2022-09-04T02:40:38.200Z,9.667985
2022-09-04T02:41:38.208Z,9.668063
2022-09-04T02:42:38.187Z,9.668015
2022-09-04T02:43:38.125Z,9.668046
2022-09-04T02:44:38.134Z,9.667997
2022-09-04T02:45:38.117Z,9.668015
2022-09-04T02:46:42.543Z,9.668065
2022-09-04T02:47:40.148Z,9.668001
2022-09-04T02:48:38.104Z,9.667994
2022-09-04T02:49:38.190Z,9.667994
2022-09-04T02:50:38.103Z,9.667976
2022-09-04T02:51:38.086Z,9.668031
2022-09-04T02:52:38.097Z,9.668024
2022-09-04T02:53:38.078Z,9.668075
2022-09-04T02:54:38.057Z,9.668036
2022-09-04T02:55:38.084Z,9.668031
2022-09-04T02:56:38.014Z,9.668006
2022-09-04T02:57:38.087Z,9.668017
2022-09-04T02:58:38.073Z,9.668039
2022-09-04T02:59:38.056Z,9.668116
2022-09-04T03:00:38.092Z,9.668092
2022-09-04T03:01:38.068Z,9.668065
2022-09-04T03:02:38.043Z,9.668067
2022-09-04T03:03:38.018Z,9.668018
2022-09-04T03:04:37.997Z,9.668011
2022-09-04T03:05:37.990Z,9.668027
2022-09-04T03:06:38.021Z,9.668017
2022-09-04T03:07:38.025Z,9.668011
2022-09-04T03:08:37.957Z,9.668040
2022-09-04T03:09:37.982Z,9.668036
2022-09-04T03:10:37.992Z,9.668062
2022-09-04T03:11:37.931Z,9.668012
2022-09-04T03:12:37.944Z,9.668025
2022-09-04T03:13:37.927Z,9.668028
2022-09-04T03:14:37.929Z,9.668053
2022-09-04T03:16:11.948Z,9.668028
2022-09-04T03:16:37.947Z,9.668018
2022-09-04T03:17:38.006Z,9.668006
2022-09-04T03:18:37.965Z,9.668005
2022-09-04T03:20:10.894Z,9.668045
2022-09-04T03:20:37.933Z,9.668060
2022-09-04T03:22:10.413Z,9.668020
2022-09-04T03:22:37.860Z,9.668033
2022-09-04T03:23:37.839Z,9.668049
2022-09-04T03:24:37.861Z,9.668051
2022-09-04T03:25:37.989Z,9.668058
2022-09-04T03:26:37.777Z,9.668042
2022-09-04T03:27:37.818Z,9.668038
2022-09-04T03:28:37.792Z,9.668051
2022-09-04T03:29:37.798Z,9.668033
2022-09-04T03:30:37.799Z,9.668041
2022-09-04T03:31:37.776Z,9.668035
2022-09-04T03:32:37.776Z,9.668046
2022-09-04T03:33:37.758Z,9.668030
2022-09-04T03:34:37.773Z,9.668049
2022-09-04T03:35:38.624Z,9.668040
2022-09-04T03:36:37.767Z,9.667999
2022-09-04T03:37:37.684Z,9.668030
2022-09-04T03:38:37.723Z,9.668014
2022-09-04T03:40:12.930Z,9.668029
2022-09-04T03:41:11.135Z,9.668042
2022-09-04T03:42:10.131Z,9.668021
2022-09-04T03:42:37.706Z,9.668050
2022-09-04T03:44:11.677Z,9.668058
2022-09-04T03:44:37.691Z,9.668051
2022-09-04T03:46:11.082Z,9.668061
2022-09-04T04:04:59.765Z,9.667995
2022-09-04T04:05:26.398Z,9.668010
2022-09-04T04:06:59.270Z,9.667986
2022-09-04T04:07:58.843Z,9.667947
2022-09-04T04:08:58.862Z,9.667990
2022-09-04T04:09:26.394Z,9.667994
2022-09-04T04:10:26.495Z,9.667991
2022-09-04T04:11:26.422Z,9.667975
2022-09-04T04:12:27.227Z,9.667961
2022-09-04T04:13:26.476Z,9.667981
2022-09-04T04:14:26.392Z,9.668032
2022-09-04T04:15:27.001Z,9.667965
2022-09-04T04:16:27.019Z,9.668009
2022-09-04T04:17:58.722Z,9.667962
2022-09-04T04:18:26.377Z,9.667960
2022-09-04T04:19:26.294Z,9.667962
2022-09-04T04:20:26.281Z,9.667994
2022-09-04T04:21:26.256Z,9.667945
2022-09-04T04:22:26.256Z,9.667976
2022-09-04T04:23:26.237Z,9.667928
2022-09-04T04:24:26.264Z,9.667963
2022-09-04T04:26:00.925Z,9.667935
2022-09-04T04:26:26.401Z,9.667938
2022-09-04T04:27:59.446Z,9.667931
2022-09-04T04:28:26.319Z,9.667966
2022-09-04T04:29:26.856Z,9.667934
2022-09-04T04:30:26.204Z,9.668007
2022-09-04T04:31:26.227Z,9.668066
2022-09-04T04:32:26.202Z,9.667995
2022-09-04T04:33:26.830Z,9.667926
2022-09-04T04:34:26.185Z,9.667915
2022-09-04T04:35:26.149Z,9.667981
2022-09-04T04:36:59.365Z,9.668001
2022-09-04T04:37:26.443Z,9.667994
2022-09-04T04:38:28.925Z,9.667966
2022-09-04T04:39:30.288Z,9.667956
2022-09-04T04:40:27.457Z,9.667980
2022-09-04T04:41:26.404Z,9.667965
2022-09-04T04:42:26.292Z,9.668024
2022-09-04T04:43:26.361Z,9.668010
2022-09-04T04:44:26.285Z,9.668018
2022-09-04T04:45:27.415Z,9.667998
2022-09-04T04:46:27.238Z,9.668001
2022-09-04T04:47:27.147Z,9.668031
2022-09-04T04:48:26.249Z,9.667953
2022-09-04T04:49:26.182Z,9.667890
2022-09-04T04:50:26.208Z,9.667933
2022-09-04T04:51:26.193Z,9.667954
2022-09-04T04:52:26.117Z,9.667967
2022-09-04T04:53:26.121Z,9.667925
2022-09-04T04:54:26.173Z,9.667916
2022-09-04T04:55:26.854Z,9.667941
2022-09-04T04:56:26.155Z,9.667992
2022-09-04T04:57:26.059Z,9.667976
2022-09-04T04:58:26.128Z,9.667977
2022-09-04T04:59:26.204Z,9.667947
2022-09-04T05:00:27.768Z,9.667916
2022-09-04T05:01:27.915Z,9.667922
2022-09-04T05:02:26.236Z,9.667878
2022-09-04T05:03:26.132Z,9.667925
2022-09-04T05:04:26.858Z,9.667902
2022-09-04T05:05:26.107Z,9.667859
2022-09-04T05:06:26.028Z,9.667924
2022-09-04T05:07:25.966Z,9.667898
2022-09-04T05:08:26.329Z,9.667885
2022-09-04T05:09:26.039Z,9.667932
2022-09-04T05:10:26.637Z,9.667927
2022-09-04T05:11:26.042Z,9.667978
2022-09-04T05:12:26.858Z,9.667988
2022-09-04T05:13:26.151Z,9.667973
2022-09-04T05:14:26.037Z,9.667957
2022-09-04T05:15:26.001Z,9.668007
2022-09-04T05:16:26.914Z,9.667956
2022-09-04T05:17:25.872Z,9.667966
2022-09-04T05:18:25.974Z,9.667949
2022-09-04T05:19:25.941Z,9.667960
2022-09-04T05:20:25.975Z,9.667918
2022-09-04T05:21:25.891Z,9.668004
2022-09-04T05:22:26.363Z,9.667992
2022-09-04T05:23:28.952Z,9.667967
2022-09-04T05:24:25.935Z,9.667953
2022-09-04T05:25:26.016Z,9.667948
2022-09-04T05:26:25.881Z,9.667974
2022-09-04T05:27:25.996Z,9.667993
2022-09-04T05:28:25.985Z,9.667974
2022-09-04T05:29:29.336Z,9.667982
2022-09-04T05:30:27.861Z,9.667974
2022-09-04T05:31:25.962Z,9.667975
2022-09-04T05:32:25.800Z,9.667980
2022-09-04T05:33:25.907Z,9.667993
2022-09-04T05:34:25.887Z,9.668024
2022-09-04T05:35:25.810Z,9.668027
2022-09-04T05:36:26.949Z,9.668012
2022-09-04T05:37:25.890Z,9.667995
2022-09-04T05:38:26.365Z,9.667946
2022-09-04T05:39:26.657Z,9.667946
2022-09-04T05:40:25.809Z,9.667953
2022-09-04T05:41:26.736Z,9.667927
2022-09-04T05:42:26.383Z,9.667988
2022-09-04T05:43:26.376Z,9.668008
2022-09-04T05:44:26.366Z,9.668003
2022-09-04T05:45:25.749Z,9.668001
2022-09-04T05:46:25.833Z,9.668015
2022-09-04T05:47:30.334Z,9.667973
2022-09-04T05:48:27.864Z,9.667953
2022-09-04T05:49:25.782Z,9.667948
2022-09-04T05:50:25.802Z,9.667970
2022-09-04T05:51:25.805Z,9.667933
2022-09-04T05:52:25.949Z,9.667917
2022-09-04T05:53:25.824Z,9.667918
2022-09-04T05:54:25.942Z,9.668000
2022-09-04T05:55:26.746Z,9.667977
2022-09-04T05:56:25.818Z,9.668038
2022-09-04T05:57:25.732Z,9.667994
2022-09-04T05:58:26.417Z,9.668030
2022-09-04T05:59:26.371Z,9.667988
2022-09-04T06:00:26.370Z,9.668015
2022-09-04T06:01:25.694Z,9.667977
2022-09-04T06:02:25.784Z,9.668031
2022-09-04T06:03:25.629Z,9.667948
2022-09-04T06:04:25.789Z,9.667943
2022-09-04T06:05:26.397Z,9.668016
2022-09-04T06:06:25.755Z,9.667984
2022-09-04T06:07:25.717Z,9.667942
2022-09-04T06:08:28.631Z,9.667976
2022-09-04T06:09:26.649Z,9.667974
2022-09-04T06:10:26.376Z,9.667953
2022-09-04T06:11:25.536Z,9.667980
2022-09-04T06:12:25.748Z,9.668020
2022-09-04T06:13:27.431Z,9.667997
2022-09-04T06:14:25.792Z,9.667957
2022-09-04T06:15:27.374Z,9.667995
2022-09-04T06:16:25.676Z,9.667979
2022-09-04T06:17:25.780Z,9.667917
2022-09-04T06:18:26.476Z,9.668015
2022-09-04T06:19:26.377Z,9.667997
2022-09-04T06:20:25.484Z,9.667994
2022-09-04T06:21:26.382Z,9.667987
2022-09-04T06:22:26.879Z,9.667989
2022-09-04T06:23:26.247Z,9.667955
2022-09-04T06:24:25.729Z,9.667972
2022-09-04T06:25:25.894Z,9.667990
2022-09-04T06:26:26.282Z,9.667991
2022-09-04T06:27:27.387Z,9.667979
2022-09-04T06:28:25.577Z,9.667963
2022-09-04T06:29:25.456Z,9.667942
2022-09-04T06:30:25.511Z,9.667912
2022-09-04T06:31:25.578Z,9.667892
2022-09-04T06:32:25.468Z,9.667905
2022-09-04T06:33:25.493Z,9.667899
2022-09-04T06:34:25.457Z,9.667906
2022-09-04T06:35:26.218Z,9.667970
2022-09-04T06:36:26.839Z,9.667988
2022-09-04T06:37:25.344Z,9.667965
2022-09-04T06:38:25.987Z,9.667991
2022-09-04T06:39:25.431Z,9.667966
2022-09-04T06:40:25.377Z,9.668015
2022-09-04T06:41:26.216Z,9.667981
2022-09-04T06:43:00.422Z,9.668000
2022-09-04T06:43:29.527Z,9.667996
2022-09-04T06:44:25.250Z,9.667988
2022-09-04T06:45:25.369Z,9.667984
2022-09-04T06:46:26.448Z,9.667990
2022-09-04T06:47:25.307Z,9.668011
2022-09-04T06:48:25.382Z,9.668005
2022-09-04T06:49:25.293Z,9.667947
2022-09-04T06:50:26.927Z,9.667986
2022-09-04T06:51:25.307Z,9.667921
2022-09-04T06:52:25.249Z,9.668007
2022-09-04T06:53:25.299Z,9.667996
2022-09-04T06:54:25.925Z,9.667997
2022-09-04T06:55:27.061Z,9.667994
2022-09-04T06:56:25.270Z,9.667997
2022-09-04T06:57:25.165Z,9.667943
2022-09-04T06:58:25.341Z,9.667956
2022-09-04T06:59:25.163Z,9.667998
2022-09-04T07:00:25.492Z,9.667946
2022-09-04T07:01:25.236Z,9.667936
2022-09-04T07:02:25.400Z,9.667954
2022-09-04T07:03:25.168Z,9.667974
2022-09-04T07:04:26.700Z,9.667998
2022-09-04T07:05:25.181Z,9.667984
2022-09-04T07:06:25.932Z,9.667957
2022-09-04T07:07:25.382Z,9.667938
2022-09-04T07:08:25.813Z,9.667971
2022-09-04T07:09:25.232Z,9.667966
2022-09-04T07:10:25.677Z,9.667959
2022-09-04T07:11:25.272Z,9.668008
2022-09-04T07:12:25.096Z,9.667980
2022-09-04T07:13:25.069Z,9.668007
2022-09-04T07:14:25.131Z,9.668031
2022-09-04T07:15:25.224Z,9.667967
2022-09-04T07:16:25.942Z,9.667974
2022-09-04T07:17:25.935Z,9.668000
2022-09-04T07:18:25.214Z,9.668012
2022-09-04T07:19:25.051Z,9.668028
2022-09-04T07:20:25.944Z,9.668039
2022-09-04T07:21:27.787Z,9.667999
2022-09-04T07:22:25.940Z,9.667990
2022-09-04T07:23:26.009Z,9.667964
2022-09-04T07:24:26.937Z,9.667983
2022-09-04T07:25:25.952Z,9.667945
2022-09-04T07:26:25.442Z,9.667989
2022-09-04T07:27:24.992Z,9.667963
2022-09-04T07:28:25.101Z,9.667958
2022-09-04T07:29:26.114Z,9.668036
2022-09-04T07:30:26.082Z,9.668020
2022-09-04T07:31:25.069Z,9.667994
2022-09-04T07:32:25.440Z,9.667937
2022-09-04T07:33:25.354Z,9.667955
2022-09-04T07:34:25.068Z,9.667972
2022-09-04T07:35:25.782Z,9.668052
2022-09-04T07:36:29.496Z,9.668017
2022-09-04T07:37:27.010Z,9.667978
2022-09-04T07:38:25.022Z,9.667955
2022-09-04T07:39:24.977Z,9.667983
2022-09-04T07:40:24.891Z,9.667953
2022-09-04T07:41:25.863Z,9.667943
2022-09-04T07:42:26.563Z,9.667967
2022-09-04T07:43:26.947Z,9.667931
2022-09-04T07:44:25.952Z,9.668006
2022-09-04T07:46:00.395Z,9.667985
2022-09-04T07:46:25.861Z,9.667949
2022-09-04T07:47:24.961Z,9.667928
2022-09-04T07:48:26.428Z,9.667939
2022-09-04T07:49:25.738Z,9.667867
2022-09-04T07:50:25.834Z,9.667869
2022-09-04T07:51:25.481Z,9.667887
2022-09-04T07:52:25.477Z,9.667811
2022-09-04T07:53:24.825Z,9.667886
2022-09-04T07:54:25.892Z,9.667833
2022-09-04T07:55:25.779Z,9.667852
2022-09-04T07:56:25.476Z,9.667771
2022-09-04T07:57:24.865Z,9.667819
2022-09-04T07:58:26.526Z,9.667837
2022-09-04T07:59:24.802Z,9.667796
2022-09-04T08:00:24.764Z,9.667808
2022-09-04T08:01:24.784Z,9.667888
2022-09-04T08:02:24.926Z,9.667806
2022-09-04T08:03:25.262Z,9.667895
2022-09-04T08:04:24.849Z,9.667869
2022-09-04T08:05:25.486Z,9.667913
2022-09-04T08:06:24.687Z,9.667856
2022-09-04T08:07:24.895Z,9.667807
2022-09-04T08:08:24.743Z,9.667879
2022-09-04T08:09:25.782Z,9.667841
2022-09-04T08:10:24.718Z,9.667794
2022-09-04T08:11:24.723Z,9.667742
2022-09-04T08:12:25.314Z,9.667726
2022-09-04T08:13:24.787Z,9.667767
2022-09-04T08:14:25.486Z,9.667805
2022-09-04T08:15:24.751Z,9.667877
2022-09-04T08:16:25.559Z,9.667856
2022-09-04T08:17:24.774Z,9.667932
2022-09-04T08:18:24.670Z,9.667922
2022-09-04T08:19:25.606Z,9.667852
2022-09-04T08:20:24.619Z,9.667922
2022-09-04T08:21:24.638Z,9.667925
2022-09-04T08:22:28.252Z,9.667971
2022-09-04T08:23:25.609Z,9.667911
2022-09-04T08:24:24.567Z,9.668006
2022-09-04T08:25:24.626Z,9.668047
2022-09-04T08:26:24.722Z,9.668006
2022-09-04T08:27:57.086Z,9.667918
2022-09-04T08:28:24.598Z,9.667931
2022-09-04T08:29:24.564Z,9.667882
2022-09-04T08:30:24.574Z,9.667905
2022-09-04T08:31:56.908Z,9.667910
2022-09-04T08:32:24.472Z,9.667924
2022-09-04T08:33:25.487Z,9.667892
2022-09-04T08:34:24.486Z,9.667972
2022-09-04T08:35:24.488Z,9.668011
2022-09-04T08:36:24.518Z,9.668021
2022-09-04T08:37:24.506Z,9.667964
2022-09-04T08:38:24.482Z,9.667993
2022-09-04T08:39:24.581Z,9.667952
2022-09-04T08:40:24.510Z,9.667945
2022-09-04T08:41:25.456Z,9.667987
2022-09-04T08:42:25.616Z,9.667981
2022-09-04T08:43:25.310Z,9.667997
2022-09-04T08:44:25.157Z,9.667985
2022-09-04T08:45:24.511Z,9.668003
2022-09-04T08:46:28.325Z,9.668013
2022-09-04T08:47:25.460Z,9.667974
2022-09-04T08:48:25.589Z,9.667988
2022-09-04T08:49:24.429Z,9.667967
2022-09-04T08:50:24.441Z,9.667954
2022-09-04T08:51:24.353Z,9.667993
2022-09-04T08:52:24.391Z,9.667974
2022-09-04T08:53:25.322Z,9.667949
2022-09-04T08:54:24.427Z,9.668050
2022-09-04T08:55:24.392Z,9.668017
2022-09-04T08:56:24.389Z,9.668049
2022-09-04T08:57:24.424Z,9.668026
2022-09-04T08:58:26.033Z,9.668036
2022-09-04T08:59:25.589Z,9.667988
2022-09-04T09:00:24.558Z,9.667978
2022-09-04T09:01:24.411Z,9.667974
2022-09-04T09:02:24.415Z,9.667998
2022-09-04T09:03:24.354Z,9.667966
2022-09-04T09:04:24.888Z,9.667981
2022-09-04T09:05:25.082Z,9.667998
2022-09-04T09:06:24.357Z,9.667990
2022-09-04T09:07:24.340Z,9.668000
2022-09-04T09:08:27.389Z,9.668013
2022-09-04T09:09:27.081Z,9.668030
2022-09-04T09:10:26.094Z,9.667996
2022-09-04T09:11:24.831Z,9.668043
2022-09-04T09:12:25.345Z,9.668028
2022-09-04T09:13:24.262Z,9.668004
2022-09-04T09:14:24.267Z,9.668034
2022-09-04T09:15:24.244Z,9.668046
2022-09-04T09:16:24.295Z,9.668031
2022-09-04T09:17:58.183Z,9.668064
2022-09-04T09:18:56.642Z,9.668034
2022-09-04T09:19:24.134Z,9.668013
2022-09-04T09:20:24.165Z,9.668013
2022-09-04T09:21:24.218Z,9.668048
2022-09-04T09:22:57.250Z,9.668012
2022-09-04T09:23:24.077Z,9.668027
2022-09-04T09:24:24.120Z,9.668013
2022-09-04T09:25:25.209Z,9.668038
2022-09-04T09:26:24.186Z,9.668028
2022-09-04T09:27:24.092Z,9.667990
2022-09-04T09:28:24.660Z,9.668027
2022-09-04T09:29:24.338Z,9.667992
2022-09-04T09:30:24.125Z,9.668033
2022-09-04T09:31:24.912Z,9.668013
2022-09-04T09:32:24.192Z,9.667971
2022-09-04T09:33:24.572Z,9.668013
2022-09-04T09:34:24.106Z,9.668000
2022-09-04T09:35:24.066Z,9.668053
2022-09-04T09:36:24.063Z,9.667999
2022-09-04T09:37:24.058Z,9.668003
2022-09-04T09:38:24.125Z,9.668063
2022-09-04T09:39:24.905Z,9.668049
2022-09-04T09:40:24.026Z,9.668043
2022-09-04T09:41:24.040Z,9.668004
2022-09-04T09:42:24.064Z,9.667941
2022-09-04T09:43:24.100Z,9.667984
2022-09-04T09:44:24.051Z,9.668077
2022-09-04T09:45:24.064Z,9.668093
2022-09-04T09:46:24.893Z,9.668088
2022-09-04T09:47:23.974Z,9.668123
2022-09-04T09:48:23.988Z,9.668054
2022-09-04T09:49:23.941Z,9.668125
2022-09-04T09:50:24.080Z,9.668176
2022-09-04T09:51:23.954Z,9.668109
2022-09-04T09:52:23.987Z,9.668137
2022-09-04T09:53:24.082Z,9.668075
2022-09-04T09:54:23.971Z,9.668043
2022-09-04T09:55:23.962Z,9.668047
2022-09-04T09:56:23.901Z,9.668059
2022-09-04T09:57:33.291Z,9.668017
2022-09-04T09:58:24.907Z,9.668064
2022-09-04T09:59:23.956Z,9.668078
2022-09-04T10:00:23.897Z,9.667976
2022-09-04T10:01:23.968Z,9.668022
2022-09-04T10:02:23.941Z,9.668040
2022-09-04T10:03:24.852Z,9.667994
2022-09-04T10:04:23.855Z,9.668013
2022-09-04T10:05:23.849Z,9.668014
2022-09-04T10:06:23.900Z,9.668034
2022-09-04T10:07:23.833Z,9.668058
2022-09-04T10:08:35.363Z,9.668033
2022-09-04T10:09:24.835Z,9.668032
2022-09-04T10:10:23.830Z,9.668000
2022-09-04T10:11:23.835Z,9.667978
2022-09-04T10:12:23.837Z,9.667995
2022-09-04T10:13:23.808Z,9.668048
2022-09-04T10:14:25.287Z,9.668008
2022-09-04T10:15:24.769Z,9.668035
2022-09-04T10:16:23.855Z,9.668083
2022-09-04T10:17:23.780Z,9.668058
2022-09-04T10:18:23.756Z,9.668072
2022-09-04T10:19:23.793Z,9.668069
2022-09-04T10:20:23.720Z,9.668077
2022-09-04T10:21:23.805Z,9.668095
2022-09-04T10:22:23.729Z,9.668096
2022-09-04T10:23:23.782Z,9.668091
2022-09-04T10:24:23.737Z,9.668083
2022-09-04T10:25:23.761Z,9.668062
2022-09-04T10:26:23.737Z,9.668056
2022-09-04T10:27:23.715Z,9.667939
2022-09-04T10:28:23.671Z,9.667979
2022-09-04T10:29:23.708Z,9.667949
2022-09-04T10:30:23.780Z,9.668076
2022-09-04T10:31:23.709Z,9.668024
2022-09-04T10:32:23.690Z,9.668051
2022-09-04T10:33:23.851Z,9.668048
2022-09-04T10:34:23.703Z,9.668029
2022-09-04T10:35:23.624Z,9.668026
2022-09-04T10:36:23.671Z,9.668002
2022-09-04T10:37:23.672Z,9.668017
2022-09-04T10:38:23.737Z,9.668064
2022-09-04T10:39:24.531Z,9.668064
2022-09-04T10:40:23.673Z,9.668069
2022-09-04T10:41:24.471Z,9.668052
2022-09-04T10:42:23.576Z,9.668097
2022-09-04T10:43:23.671Z,9.668060
2022-09-04T10:44:23.593Z,9.668045
2022-09-04T10:45:23.577Z,9.668048
2022-09-04T10:46:23.738Z,9.668028
2022-09-04T10:47:23.586Z,9.668004
2022-09-04T10:48:27.937Z,9.668029
2022-09-04T10:49:25.562Z,9.668016
2022-09-04T10:50:23.568Z,9.668016
2022-09-04T10:51:23.601Z,9.668034
2022-09-04T10:52:23.525Z,9.668067
2022-09-04T10:53:23.608Z,9.667999
2022-09-04T10:54:23.601Z,9.668021
2022-09-04T10:55:23.568Z,9.668011
2022-09-04T10:56:23.509Z,9.668017
2022-09-04T10:57:23.525Z,9.668009
2022-09-04T10:58:23.531Z,9.667989
2022-09-04T10:59:23.539Z,9.668042
2022-09-04T11:00:23.490Z,9.668029
2022-09-04T11:01:23.535Z,9.668049
2022-09-04T11:02:23.555Z,9.668099
2022-09-04T11:03:23.532Z,9.668032
2022-09-04T11:04:23.487Z,9.668021
2022-09-04T11:05:23.479Z,9.667988
2022-09-04T11:06:23.425Z,9.668068
2022-09-04T11:07:26.857Z,9.668061
2022-09-04T11:08:25.457Z,9.668126
2022-09-04T11:09:23.435Z,9.668085
2022-09-04T11:10:23.437Z,9.668070
2022-09-04T11:11:23.427Z,9.668020
2022-09-04T11:12:23.490Z,9.668024
2022-09-04T11:13:23.463Z,9.668016
2022-09-04T11:14:23.380Z,9.668047
2022-09-04T11:15:23.444Z,9.668032
2022-09-04T11:16:23.439Z,9.668048
2022-09-04T11:17:24.335Z,9.668082
2022-09-04T11:18:23.384Z,9.668034
2022-09-04T11:19:23.395Z,9.668003
2022-09-04T11:20:23.313Z,9.667961
2022-09-04T11:21:23.308Z,9.668061
2022-09-04T11:22:23.370Z,9.668040
2022-09-04T11:23:23.344Z,9.668073
2022-09-04T11:24:24.368Z,9.668004
2022-09-04T11:25:23.327Z,9.668038
2022-09-04T11:26:23.309Z,9.668097
2022-09-04T11:27:23.383Z,9.668041
2022-09-04T11:28:23.332Z,9.668075
2022-09-04T11:29:23.327Z,9.668129
2022-09-04T11:30:23.308Z,9.668100
2022-09-04T11:31:23.294Z,9.668025
2022-09-04T11:32:23.340Z,9.668063
2022-09-04T11:33:23.347Z,9.668011
2022-09-04T11:34:23.272Z,9.668047
2022-09-04T11:35:23.296Z,9.668018
2022-09-04T11:36:23.233Z,9.668032
2022-09-04T11:37:23.213Z,9.668025
2022-09-04T11:38:23.222Z,9.667974
2022-09-04T11:39:23.226Z,9.668038
2022-09-04T11:40:23.329Z,9.668018
2022-09-04T11:41:23.203Z,9.668023
2022-09-04T11:42:23.216Z,9.668049
2022-09-04T11:43:23.277Z,9.668044
2022-09-04T11:44:23.955Z,9.668062
2022-09-04T11:45:23.232Z,9.668045
2022-09-04T11:46:23.177Z,9.668118
2022-09-04T11:47:23.202Z,9.668010
2022-09-04T11:48:23.152Z,9.668073
2022-09-04T11:49:23.140Z,9.668114
2022-09-04T11:50:23.150Z,9.668080
2022-09-04T11:51:23.126Z,9.668073
2022-09-04T11:52:23.107Z,9.668062
2022-09-04T11:53:23.126Z,9.668085
2022-09-04T11:54:23.115Z,9.668071
2022-09-04T11:55:23.112Z,9.668053
2022-09-04T11:56:23.061Z,9.668060
2022-09-04T11:57:23.125Z,9.668084
2022-09-04T11:58:23.117Z,9.668049
2022-09-04T11:59:23.083Z,9.668014
2022-09-04T12:00:23.126Z,9.668098
2022-09-04T12:01:23.879Z,9.668059
2022-09-04T12:02:23.071Z,9.668056
2022-09-04T12:03:23.137Z,9.668048
2022-09-04T12:04:23.162Z,9.668043
2022-09-04T12:05:24.023Z,9.668018
2022-09-04T12:06:23.055Z,9.668042
2022-09-04T12:07:23.008Z,9.668056
2022-09-04T12:08:23.000Z,9.668031
2022-09-04T12:09:23.030Z,9.668022
2022-09-04T12:10:23.083Z,9.668068
2022-09-04T12:11:22.998Z,9.668044
2022-09-04T12:12:23.011Z,9.668074
2022-09-04T12:13:23.042Z,9.668046
2022-09-04T12:14:22.964Z,9.668053
2022-09-04T12:15:23.960Z,9.668039
2022-09-04T12:16:23.067Z,9.668005
2022-09-04T12:17:22.940Z,9.668015
2022-09-04T12:18:22.942Z,9.667986
2022-09-04T12:19:22.953Z,9.667976
2022-09-04T12:20:22.940Z,9.667964
2022-09-04T12:21:22.925Z,9.667956